Time;durP1;ratioP1;P1;durP2;ratioP2;P2;SDS_P1;SDS_P2;PMS_P1;PMS_P2;Temp;Humidity;BMP_temperature;BMP_pressure;BME280_temperature;BME280_humidity;BME280_pressure;Samples;Min_cycle;Max_cycle;Signal;HPM_P1;HPM_P2
2022/05/04 00:01:17;;;;;;;1.05;0.82;;;;;;;-148.56;100.00;61375.16;5042533;28;20028;-30
2022/05/04 00:03:42;;;;;;;4.35;1.33;;;;;;;-148.56;100.00;61375.16;5041394;28;20029;-30
2022/05/04 00:06:08;;;;;;;2.15;1.17;;;;;;;-148.56;100.00;61375.16;5043282;28;20013;-31
2022/05/04 00:08:34;;;;;;;1.60;1.15;;;;;;;-148.56;100.00;61375.16;5043911;28;20028;-32
2022/05/04 00:10:59;;;;;;;1.38;1.00;;;;;;;-148.56;100.00;61375.16;5042004;28;20051;-30
2022/05/04 00:13:25;;;;;;;1.05;0.88;;;;;;;-148.56;100.00;61375.16;5043669;28;20024;-29
2022/05/04 00:15:50;;;;;;;1.77;1.00;;;;;;;-148.56;100.00;61375.16;5046556;28;20055;-30
2022/05/04 00:18:16;;;;;;;2.03;1.20;;;;;;;-148.56;100.00;61375.16;5037926;28;20048;-31
2022/05/04 00:20:41;;;;;;;2.13;0.98;;;;;;;-148.56;100.00;61375.16;5043518;28;20888;-30
2022/05/04 00:23:07;;;;;;;1.30;1.20;;;;;;;-148.56;100.00;61375.16;5042924;28;20029;-30
2022/05/04 00:25:32;;;;;;;0.75;0.75;;;;;;;-148.56;100.00;61375.16;5035041;28;20025;-30
2022/05/04 00:28:00;;;;;;;0.80;0.80;;;;;;;-148.56;100.00;61375.16;5033439;28;20119;-30
2022/05/04 00:30:25;;;;;;;1.27;1.17;;;;;;;-148.56;100.00;61375.16;5030850;28;20043;-29
2022/05/04 00:32:51;;;;;;;1.35;1.00;;;;;;;-148.56;100.00;61375.16;5032565;28;21133;-29
2022/05/04 00:35:16;;;;;;;1.55;1.10;;;;;;;-148.56;100.00;61375.16;5036637;28;20021;-29
2022/05/04 00:37:41;;;;;;;2.10;1.17;;;;;;;-148.56;100.00;61375.16;5040137;28;20040;-30
2022/05/04 00:40:07;;;;;;;0.88;0.80;;;;;;;-148.56;100.00;61375.16;5038898;28;20043;-31
2022/05/04 00:42:33;;;;;;;1.02;0.73;;;;;;;-148.56;100.00;61375.16;5038583;28;20321;-32
2022/05/04 00:44:58;;;;;;;1.10;1.00;;;;;;;-148.56;100.00;61375.16;5034175;28;20082;-34
2022/05/04 00:47:24;;;;;;;1.25;0.88;;;;;;;-148.56;100.00;61375.16;5033910;28;20024;-30
2022/05/04 00:49:49;;;;;;;2.58;1.00;;;;;;;-148.56;100.00;61375.16;5034848;28;20037;-29
2022/05/04 00:52:15;;;;;;;1.27;1.00;;;;;;;-148.56;100.00;61375.16;5035994;28;20077;-29
2022/05/04 00:54:42;;;;;;;1.05;0.90;;;;;;;-148.56;100.00;61375.16;5033411;28;20028;-29
2022/05/04 00:57:08;;;;;;;0.85;0.80;;;;;;;-148.56;100.00;61375.16;5040218;28;20811;-30
2022/05/04 00:59:33;;;;;;;2.10;0.90;;;;;;;-148.56;100.00;61375.16;5033706;28;20029;-31
2022/05/04 01:01:59;;;;;;;1.88;1.20;;;;;;;-148.56;100.00;61375.16;5030399;28;20866;-29
2022/05/04 01:04:25;;;;;;;1.80;1.00;;;;;;;-148.56;100.00;61375.16;5035251;28;20040;-30
2022/05/04 01:06:50;;;;;;;1.63;1.00;;;;;;;-148.56;100.00;61375.16;5040703;28;20060;-30
2022/05/04 01:09:15;;;;;;;0.85;0.73;;;;;;;-148.56;100.00;61375.16;5036737;28;20135;-29
2022/05/04 01:11:46;;;;;;;1.02;0.82;;;;;;;-148.56;100.00;61375.16;5040411;28;20525;-30
2022/05/04 01:14:12;;;;;;;3.33;1.17;;;;;;;-148.56;100.00;61375.16;5040894;28;20017;-31
2022/05/04 01:16:39;;;;;;;1.63;0.90;;;;;;;-148.56;100.00;61375.16;5042158;28;20087;-29
2022/05/04 01:19:04;;;;;;;1.65;1.00;;;;;;;-148.56;100.00;61375.16;5044475;28;20032;-29
2022/05/04 01:21:30;;;;;;;0.85;0.80;;;;;;;-148.56;100.00;61375.16;5040720;28;20052;-31
2022/05/04 01:23:56;;;;;;;2.15;0.82;;;;;;;-148.56;100.00;61375.16;5042933;28;20029;-29
2022/05/04 01:26:22;;;;;;;0.88;0.70;;;;;;;-148.56;100.00;61375.16;5042959;28;20101;-31
2022/05/04 01:28:48;;;;;;;0.80;0.68;;;;;;;-148.56;100.00;61375.16;5042636;28;20691;-29
2022/05/04 01:31:13;;;;;;;1.67;1.00;;;;;;;-148.56;100.00;61375.16;5043029;28;20036;-30
2022/05/04 01:33:39;;;;;;;1.77;0.90;;;;;;;-148.56;100.00;61375.16;5053894;28;20032;-30
2022/05/04 01:36:05;;;;;;;1.02;0.80;;;;;;;-148.56;100.00;61375.16;5022986;28;20063;-29
2022/05/04 01:38:30;;;;;;;1.60;0.90;;;;;;;-148.56;100.00;61375.16;5020618;28;20063;-29
2022/05/04 01:40:55;;;;;;;2.33;1.08;;;;;;;-148.56;100.00;61375.16;5026443;28;20141;-28
2022/05/04 01:43:21;;;;;;;0.80;0.80;;;;;;;-148.56;100.00;61375.16;5031058;28;20060;-28
2022/05/04 01:45:46;;;;;;;1.00;0.85;;;;;;;-148.56;100.00;61375.16;5031710;28;20147;-29
2022/05/04 01:48:12;;;;;;;1.15;0.80;;;;;;;-148.56;100.00;61375.16;5040574;28;20751;-29
2022/05/04 01:50:37;;;;;;;1.65;0.93;;;;;;;-148.56;100.00;61375.16;5040284;28;20358;-29
2022/05/04 01:53:03;;;;;;;1.92;1.10;;;;;;;-148.56;100.00;61375.16;5040175;28;20016;-30
2022/05/04 01:55:29;;;;;;;0.90;0.80;;;;;;;-148.56;100.00;61375.16;5037654;28;20139;-31
2022/05/04 01:57:54;;;;;;;1.17;0.80;;;;;;;-148.56;100.00;61375.16;5038117;28;20032;-29
2022/05/04 02:00:19;;;;;;;1.52;1.10;;;;;;;-148.56;100.00;61375.16;5041341;28;20073;-30
2022/05/04 02:02:45;;;;;;;2.10;0.75;;;;;;;-148.56;100.00;61375.16;5039341;28;20294;-30
2022/05/04 02:05:10;;;;;;;1.67;0.90;;;;;;;-148.56;100.00;61375.16;5024432;28;21060;-30
2022/05/04 02:07:36;;;;;;;1.73;0.90;;;;;;;-148.56;100.00;61375.16;5039615;28;20201;-34
2022/05/04 02:10:05;;;;;;;1.58;1.00;;;;;;;-148.56;100.00;61375.16;5038085;28;20124;-29
2022/05/04 02:12:31;;;;;;;0.95;0.77;;;;;;;-148.56;100.00;61375.16;5040324;28;21354;-30
2022/05/04 02:14:56;;;;;;;1.23;0.70;;;;;;;-148.56;100.00;61375.16;5031258;28;20024;-29
2022/05/04 02:17:22;;;;;;;0.73;0.70;;;;;;;-148.56;100.00;61375.16;5032920;28;20082;-31
2022/05/04 02:19:47;;;;;;;2.35;0.98;;;;;;;-148.56;100.00;61375.16;5035029;28;20194;-30
2022/05/04 02:22:13;;;;;;;1.48;0.88;;;;;;;-148.56;100.00;61375.16;5043204;28;20339;-30
2022/05/04 02:24:38;;;;;;;1.45;1.00;;;;;;;-148.56;100.00;61375.16;5033210;28;20028;-29
2022/05/04 02:27:03;;;;;;;1.80;0.75;;;;;;;-148.56;100.00;61375.16;5034518;28;20153;-29
2022/05/04 02:29:29;;;;;;;1.40;0.73;;;;;;;-148.56;100.00;61375.16;5036006;28;20877;-30
2022/05/04 02:31:57;;;;;;;0.93;0.70;;;;;;;-148.56;100.00;61375.16;5037137;28;20036;-30
2022/05/04 02:34:22;;;;;;;1.90;0.60;;;;;;;-148.56;100.00;61375.16;5034583;28;20028;-29
2022/05/04 02:39:32;;;;;;;1.20;0.73;;;;;;;-148.56;100.00;61375.16;5038826;28;20151;-32
2022/05/04 02:41:57;;;;;;;1.80;0.90;;;;;;;-148.56;100.00;61375.16;5037622;28;20036;-31
2022/05/04 02:44:23;;;;;;;0.85;0.70;;;;;;;-148.56;100.00;61375.16;5033274;28;20040;-30
2022/05/04 02:46:48;;;;;;;1.15;0.55;;;;;;;-148.56;100.00;61375.16;5035454;28;20381;-29
2022/05/04 02:49:14;;;;;;;0.88;0.50;;;;;;;-148.56;100.00;61375.16;5046346;28;20043;-30
2022/05/04 02:51:40;;;;;;;1.58;0.90;;;;;;;-148.56;100.00;61375.16;5039146;28;20372;-30
2022/05/04 02:54:05;;;;;;;1.17;0.65;;;;;;;-148.56;100.00;61375.16;5037719;28;20023;-30
2022/05/04 02:56:31;;;;;;;0.88;0.65;;;;;;;-148.56;100.00;61375.16;5041173;28;20055;-29
2022/05/04 02:58:56;;;;;;;0.93;0.80;;;;;;;-148.56;100.00;61375.16;5043640;28;20062;-29
2022/05/04 03:04:09;;;;;;;1.73;0.88;;;;;;;-148.56;100.00;61375.16;5038635;28;20098;-29
2022/05/04 03:06:34;;;;;;;0.80;0.60;;;;;;;-148.56;100.00;61375.16;5048166;28;20071;-30
2022/05/04 03:09:00;;;;;;;0.70;0.70;;;;;;;-148.56;100.00;61375.16;5043331;28;20024;-30
2022/05/04 03:14:09;;;;;;;0.95;0.70;;;;;;;-148.56;100.00;61375.16;5039383;28;20047;-30
2022/05/04 03:16:35;;;;;;;1.98;0.68;;;;;;;-148.56;100.00;61375.16;5042147;28;20779;-31
2022/05/04 03:19:04;;;;;;;0.95;0.75;;;;;;;-148.56;100.00;61375.16;5040705;28;20125;-29
2022/05/04 03:21:30;;;;;;;0.77;0.65;;;;;;;-148.56;100.00;61375.16;5038954;28;20111;-30
2022/05/04 03:23:55;;;;;;;1.23;0.60;;;;;;;-148.56;100.00;61375.16;5037884;28;20506;-29
2022/05/04 03:26:20;;;;;;;0.73;0.70;;;;;;;-148.56;100.00;61375.16;5044024;28;20037;-30
2022/05/04 03:28:46;;;;;;;1.35;0.65;;;;;;;-148.56;100.00;61375.16;5041671;28;20031;-28
2022/05/04 03:31:11;;;;;;;0.73;0.57;;;;;;;-148.56;100.00;61375.16;5049871;28;20807;-29
2022/05/04 03:33:37;;;;;;;0.90;0.85;;;;;;;-148.56;100.00;61375.16;5041731;28;20798;-29
2022/05/04 03:36:02;;;;;;;1.08;0.80;;;;;;;-148.56;100.00;61375.16;5045595;28;20109;-29
2022/05/04 03:38:28;;;;;;;1.80;0.80;;;;;;;-148.56;100.00;61375.16;5042248;28;20036;-30
2022/05/04 03:40:53;;;;;;;0.95;0.60;;;;;;;-148.56;100.00;61375.16;5046611;28;20036;-30
2022/05/04 03:43:19;;;;;;;0.50;0.50;;;;;;;-148.56;100.00;61375.16;5041096;28;20040;-30
2022/05/04 03:45:44;;;;;;;2.47;0.80;;;;;;;-148.56;100.00;61375.16;5038080;28;23227;-29
2022/05/04 03:48:09;;;;;;;1.70;0.70;;;;;;;-148.56;100.00;61375.16;5044798;28;20039;-28
2022/05/04 03:50:35;;;;;;;0.55;0.55;;;;;;;-148.56;100.00;61375.16;5038741;28;20036;-30
2022/05/04 03:53:00;;;;;;;0.77;0.60;;;;;;;-148.56;100.00;61375.16;5039781;28;20036;-30
2022/05/04 03:55:25;;;;;;;0.50;0.50;;;;;;;-148.56;100.00;61375.16;5040069;28;20032;-29
2022/05/04 03:57:51;;;;;;;0.93;0.80;;;;;;;-148.56;100.00;61375.16;5043711;28;20036;-29
2022/05/04 04:00:16;;;;;;;2.67;1.00;;;;;;;-148.56;100.00;61375.16;5037859;28;20040;-29
2022/05/04 04:02:42;;;;;;;0.73;0.63;;;;;;;-148.56;100.00;61375.16;5038454;28;20125;-30
2022/05/04 04:05:08;;;;;;;1.00;0.80;;;;;;;-148.56;100.00;61375.16;5036874;28;20024;-30
2022/05/04 04:07:33;;;;;;;1.00;0.80;;;;;;;-148.56;100.00;61375.16;5038065;28;20743;-31
2022/05/04 04:09:59;;;;;;;0.98;0.70;;;;;;;-148.56;100.00;61375.16;5037973;28;20115;-31
2022/05/04 04:12:24;;;;;;;0.60;0.60;;;;;;;-148.56;100.00;61375.16;5036393;28;20606;-29
2022/05/04 04:14:50;;;;;;;1.05;0.63;;;;;;;-148.56;100.00;61375.16;5041062;28;20713;-29
2022/05/04 04:17:15;;;;;;;1.02;0.63;;;;;;;-148.56;100.00;61375.16;5035916;28;20714;-30
2022/05/04 04:19:40;;;;;;;1.45;0.73;;;;;;;-148.56;100.00;61375.16;5037021;28;20024;-29
2022/05/04 04:22:06;;;;;;;1.30;0.85;;;;;;;-148.56;100.00;61375.16;5036562;28;20024;-30
2022/05/04 04:24:31;;;;;;;0.47;0.47;;;;;;;-148.56;100.00;61375.16;5037876;28;20056;-30
2022/05/04 04:26:57;;;;;;;0.47;0.47;;;;;;;-148.56;100.00;61375.16;5036565;28;20032;-29
2022/05/04 04:29:22;;;;;;;0.75;0.65;;;;;;;-148.56;100.00;61375.16;5039596;28;20035;-32
2022/05/04 04:31:47;;;;;;;1.65;0.57;;;;;;;-148.56;100.00;61375.16;5032381;28;20040;-29
2022/05/04 04:34:13;;;;;;;0.68;0.50;;;;;;;-148.56;100.00;61375.16;5039953;28;20267;-31
2022/05/04 04:36:38;;;;;;;1.17;0.55;;;;;;;-148.56;100.00;61375.16;5039953;28;20024;-38
2022/05/04 04:39:04;;;;;;;0.50;0.50;;;;;;;-148.56;100.00;61375.16;5041156;28;20093;-31
2022/05/04 04:41:30;;;;;;;0.50;0.50;;;;;;;-148.56;100.00;61375.16;5042684;28;21156;-29
2022/05/04 04:43:55;;;;;;;0.90;0.70;;;;;;;-148.56;100.00;61375.16;5042334;28;20028;-30
2022/05/04 04:46:21;;;;;;;0.90;0.68;;;;;;;-148.56;100.00;61375.16;5041447;28;21191;-29
2022/05/04 04:48:46;;;;;;;0.88;0.60;;;;;;;-148.56;100.00;61375.16;5039402;28;20064;-28
2022/05/04 04:51:11;;;;;;;0.50;0.50;;;;;;;-148.56;100.00;61375.16;5042297;28;20037;-30
2022/05/04 04:53:38;;;;;;;1.20;0.50;;;;;;;-148.56;100.00;61375.16;5033873;28;20442;-30
2022/05/04 04:56:04;;;;;;;0.80;0.65;;;;;;;-148.56;100.00;61375.16;5044379;28;20032;-29
2022/05/04 04:58:30;;;;;;;0.90;0.60;;;;;;;-148.56;100.00;61375.16;5043646;28;20066;-30
2022/05/04 05:00:56;;;;;;;0.50;0.50;;;;;;;-148.56;100.00;61375.16;5043012;28;21000;-30
2022/05/04 05:03:21;;;;;;;0.90;0.55;;;;;;;-148.56;100.00;61375.16;5044863;28;20029;-30
2022/05/04 05:05:47;;;;;;;0.55;0.55;;;;;;;-148.56;100.00;61375.16;5036519;28;20032;-31
2022/05/04 05:08:12;;;;;;;1.05;0.77;;;;;;;-148.56;100.00;61375.16;5043634;28;20028;-29
2022/05/04 05:10:38;;;;;;;4.90;0.70;;;;;;;-148.56;100.00;61375.16;5037259;28;20119;-31
2022/05/04 05:13:03;;;;;;;0.70;0.63;;;;;;;-148.56;100.00;61375.16;5040764;28;20081;-29
2022/05/04 05:18:14;;;;;;;1.52;0.82;;;;;;;-148.56;100.00;61375.16;5045721;28;20071;-29
2022/05/04 05:20:39;;;;;;;2.25;0.60;;;;;;;-148.56;100.00;61375.16;5043515;28;20491;-30
2022/05/04 05:23:04;;;;;;;1.73;0.60;;;;;;;-148.56;100.00;61375.16;5037473;28;20040;-30
2022/05/04 05:25:31;;;;;;;6.53;0.90;;;;;;;-148.56;100.00;61375.16;5045091;28;20032;-29
2022/05/04 05:27:56;;;;;;;1.42;0.50;;;;;;;-148.56;100.00;61375.16;5044298;28;20086;-29
2022/05/04 05:30:22;;;;;;;0.50;0.50;;;;;;;-148.56;100.00;61375.16;5040981;28;21128;-29
2022/05/04 05:32:47;;;;;;;0.82;0.47;;;;;;;-148.56;100.00;61375.16;5040947;28;20033;-30
2022/05/04 05:35:13;;;;;;;0.50;0.50;;;;;;;-148.56;100.00;61375.16;5042705;28;20086;-29
2022/05/04 05:37:38;;;;;;;0.77;0.45;;;;;;;-148.56;100.00;61375.16;5043064;28;20077;-29
2022/05/04 05:40:04;;;;;;;1.05;0.65;;;;;;;-148.56;100.00;61375.16;5040664;28;21958;-30
2022/05/04 05:42:30;;;;;;;1.27;0.60;;;;;;;-148.56;100.00;61375.16;5041957;28;20051;-29
2022/05/04 05:44:55;;;;;;;0.63;0.50;;;;;;;-148.56;100.00;61375.16;5044381;28;20021;-31
2022/05/04 05:47:20;;;;;;;0.47;0.40;;;;;;;-148.56;100.00;61375.16;5045916;28;20355;-29
2022/05/04 05:49:46;;;;;;;0.63;0.38;;;;;;;-148.56;100.00;61375.16;5043953;28;20059;-31
2022/05/04 05:52:11;;;;;;;0.90;0.60;;;;;;;-148.56;100.00;61375.16;5041622;28;20040;-33
2022/05/04 05:54:37;;;;;;;0.85;0.50;;;;;;;-148.56;100.00;61375.16;5041892;28;20029;-31
2022/05/04 05:57:02;;;;;;;0.75;0.60;;;;;;;-148.56;100.00;61375.16;5048481;28;20025;-37
2022/05/04 05:59:28;;;;;;;0.43;0.43;;;;;;;-148.56;100.00;61375.16;5050555;28;20070;-32
2022/05/04 06:01:53;;;;;;;1.65;0.68;;;;;;;-148.56;100.00;61375.16;5046205;28;20095;-30
2022/05/04 06:04:18;;;;;;;0.80;0.60;;;;;;;-148.56;100.00;61375.16;5050173;28;20731;-32
2022/05/04 06:06:44;;;;;;;0.50;0.50;;;;;;;-148.56;100.00;61375.16;5048758;28;20033;-35
2022/05/04 06:09:09;;;;;;;0.98;0.60;;;;;;;-148.56;100.00;61375.16;5046660;28;20028;-27
2022/05/04 06:11:35;;;;;;;1.05;0.70;;;;;;;-148.56;100.00;61375.16;5042614;28;20028;-29
2022/05/04 06:14:01;;;;;;;0.77;0.50;;;;;;;-148.56;100.00;61375.16;5047610;28;20533;-30
2022/05/04 06:16:26;;;;;;;0.57;0.40;;;;;;;-148.56;100.00;61375.16;5038088;28;20032;-28
2022/05/04 06:18:52;;;;;;;0.70;0.40;;;;;;;-148.56;100.00;61375.16;5038775;28;20636;-28
2022/05/04 06:21:17;;;;;;;1.27;0.60;;;;;;;-148.56;100.00;61375.16;5044358;28;20031;-27
2022/05/04 06:23:43;;;;;;;1.45;0.47;;;;;;;-148.56;100.00;61375.16;5041534;28;20376;-28
2022/05/04 06:26:08;;;;;;;1.20;0.80;;;;;;;-148.56;100.00;61375.16;5039506;28;20093;-29
2022/05/04 06:28:34;;;;;;;1.30;0.82;;;;;;;-148.56;100.00;61375.16;5047757;28;20024;-28
2022/05/04 06:36:28;;;;;;;8.65;2.13;;;;;;;-148.56;100.00;61375.16;5034314;28;20761;-28
2022/05/04 06:38:53;;;;;;;21.42;2.20;;;;;;;-148.56;100.00;61375.16;5030433;28;20028;-29
2022/05/04 06:41:18;;;;;;;4.85;1.63;;;;;;;-148.56;100.00;61375.16;5035524;28;21118;-29
2022/05/04 06:43:45;;;;;;;6.78;1.20;;;;;;;-148.56;100.00;61375.16;5037426;28;20033;-29
2022/05/04 06:46:10;;;;;;;4.80;1.70;;;;;;;-148.56;100.00;61375.16;5024101;28;20094;-29
2022/05/04 06:48:36;;;;;;;2.75;1.38;;;;;;;-148.56;100.00;61375.16;5031122;28;20033;-30
2022/05/04 06:51:01;;;;;;;3.22;1.30;;;;;;;-148.56;100.00;61375.16;5036773;28;20029;-28
2022/05/04 06:53:26;;;;;;;2.67;1.55;;;;;;;-148.56;100.00;61375.16;5034040;28;20036;-27
2022/05/04 06:55:52;;;;;;;8.65;1.75;;;;;;;-148.56;100.00;61375.16;5031084;28;20964;-29
2022/05/04 06:58:17;;;;;;;3.97;1.50;;;;;;;-148.56;100.00;61375.16;5033676;28;20031;-28
2022/05/04 07:00:43;;;;;;;6.45;1.70;;;;;;;-148.56;100.00;61375.16;5033194;28;20041;-29
2022/05/04 07:03:08;;;;;;;5.60;1.80;;;;;;;-148.56;100.00;61375.16;5036832;28;20477;-32
2022/05/04 07:05:33;;;;;;;4.35;1.92;;;;;;;-148.56;100.00;61375.16;5035021;28;20570;-29
2022/05/04 07:07:59;;;;;;;7.78;1.95;;;;;;;-148.56;100.00;61375.16;5034837;28;20033;-27
2022/05/04 07:10:24;;;;;;;2.55;1.40;;;;;;;-148.56;100.00;61375.16;5038390;28;20033;-27
2022/05/04 07:12:50;;;;;;;4.55;1.85;;;;;;;-148.56;100.00;61375.16;5038547;28;20461;-29
2022/05/04 07:15:16;;;;;;;5.20;2.05;;;;;;;-148.56;100.00;61375.16;5045709;28;20017;-29
2022/05/04 07:17:41;;;;;;;5.45;1.63;;;;;;;-148.56;100.00;61375.16;5042801;28;20037;-28
2022/05/04 07:20:08;;;;;;;3.92;1.90;;;;;;;-148.56;100.00;61375.16;5037627;28;20031;-30
2022/05/04 07:22:34;;;;;;;7.18;2.20;;;;;;;-148.56;100.00;61375.16;5040671;28;20113;-28
2022/05/04 07:24:59;;;;;;;5.78;1.95;;;;;;;-148.56;100.00;61375.16;5040858;28;20673;-30
2022/05/04 07:27:25;;;;;;;9.15;1.90;;;;;;;-148.56;100.00;61375.16;5042357;28;20039;-30
2022/05/04 07:29:50;;;;;;;6.20;2.10;;;;;;;-148.56;100.00;61375.16;5043279;28;20039;-28
2022/05/04 07:32:15;;;;;;;6.45;1.80;;;;;;;-148.56;100.00;61375.16;5036867;28;20040;-33
2022/05/04 07:34:41;;;;;;;4.60;2.00;;;;;;;-148.56;100.00;61375.16;5034926;28;20146;-30
2022/05/04 07:37:06;;;;;;;3.53;1.70;;;;;;;-148.56;100.00;61375.16;5031460;28;20036;-29
2022/05/04 07:42:26;;;;;;;5.60;1.92;;;;;;;-148.56;100.00;61375.16;5035788;28;20413;-28
2022/05/04 07:44:58;;;;;;;6.90;2.45;;;;;;;-148.56;100.00;61375.16;5031907;28;20397;-30
2022/05/04 07:47:23;;;;;;;;;;;;;;;-148.56;100.00;61375.16;5040721;28;20596;-28
2022/05/04 07:49:49;;;;;;;6.30;2.50;;;;;;;-148.56;100.00;61375.16;5034257;28;19924;-29
2022/05/04 07:52:15;;;;;;;6.00;2.35;;;;;;;-148.56;100.00;61375.16;5041466;28;20040;-29
2022/05/04 07:54:41;;;;;;;6.38;2.28;;;;;;;-148.56;100.00;61375.16;5034544;28;20051;-30
2022/05/04 07:59:05;;;;;;;7.68;2.10;;;;;;;26.96;31.58;96588.25;5123069;27;20132;-29
2022/05/04 08:04:17;;;;;;;6.47;2.45;;;;;;;26.96;31.73;96580.38;5125632;27;20088;-34
2022/05/04 08:06:43;;;;;;;4.32;2.10;;;;;;;26.95;31.77;96581.31;5109286;27;20565;-31
2022/05/04 08:09:08;;;;;;;7.97;3.30;;;;;;;26.95;31.48;96585.72;5111283;27;20035;-30
2022/05/04 08:11:34;;;;;;;7.57;3.63;;;;;;;26.90;31.36;96593.00;5109183;27;20027;-31
2022/05/04 08:13:59;;;;;;;7.47;2.92;;;;;;;26.80;31.31;96593.56;5101955;27;20030;-30
2022/05/04 08:16:25;;;;;;;5.13;3.20;;;;;;;26.70;31.18;96593.28;5105949;27;20079;-30
2022/05/04 08:18:50;;;;;;;11.07;2.92;;;;;;;26.61;31.27;96593.84;5101356;27;20970;-29
2022/05/04 08:21:16;;;;;;;6.53;2.67;;;;;;;26.55;31.32;96595.03;5103630;27;20075;-30
2022/05/04 08:23:41;;;;;;;6.00;2.65;;;;;;;26.52;31.41;96595.25;5101867;27;20026;-29
2022/05/04 08:26:06;;;;;;;6.57;2.63;;;;;;;26.51;31.49;96601.44;5104016;27;20600;-30
2022/05/04 08:28:32;;;;;;;4.97;2.50;;;;;;;26.52;31.49;96599.63;5103969;27;20148;-31
2022/05/04 08:30:57;;;;;;;4.63;2.50;;;;;;;26.52;31.42;96603.13;5110216;27;20027;-31
2022/05/04 08:33:23;;;;;;;7.05;2.65;;;;;;;26.54;31.59;96603.88;5108953;27;20026;-30
2022/05/04 08:35:48;;;;;;;4.22;2.42;;;;;;;26.57;31.57;96597.56;5113183;27;20037;-29
2022/05/04 08:38:14;;;;;;;6.47;2.60;;;;;;;26.57;31.34;96593.19;5111762;27;20512;-30
2022/05/04 08:40:39;;;;;;;3.80;2.38;;;;;;;26.61;31.54;96599.09;5111974;27;20023;-31
2022/05/04 08:43:07;;;;;;;4.70;2.40;;;;;;;26.63;31.53;96591.97;5113852;27;20355;-29
2022/05/04 08:45:39;;;;;;;6.55;2.20;;;;;;;26.65;31.62;96602.41;5111133;27;20035;-30
2022/05/04 08:48:05;;;;;;;3.65;2.10;;;;;;;26.67;31.58;96604.00;5107988;27;20772;-30
2022/05/04 08:50:31;;;;;;;5.47;2.60;;;;;;;26.70;31.61;96602.97;5106092;27;20068;-30
2022/05/04 08:52:56;;;;;;;5.57;2.22;;;;;;;26.71;31.55;96595.00;5109445;27;20027;-29
2022/05/04 08:55:22;;;;;;;7.43;2.50;;;;;;;26.73;31.53;96592.25;5111374;27;20031;-30
2022/05/04 08:57:47;;;;;;;4.28;2.22;;;;;;;26.74;31.67;96593.97;5112664;27;20038;-30
2022/05/04 09:00:13;;;;;;;5.30;2.40;;;;;;;26.76;31.64;96597.31;5106717;27;20549;-31
2022/05/04 09:02:39;;;;;;;8.65;2.75;;;;;;;26.77;31.67;96588.50;5103715;27;20030;-31
2022/05/04 09:05:16;;;;;;;7.22;2.70;;;;;;;26.79;31.71;96591.03;5096173;27;20078;-35
2022/05/04 09:07:41;;;;;;;8.98;3.00;;;;;;;26.80;31.66;96588.31;5105121;27;21687;-29
2022/05/04 09:10:09;;;;;;;7.65;2.72;;;;;;;26.82;31.75;96586.47;5092170;27;20038;-30
2022/05/04 09:12:34;;;;;;;9.93;2.85;;;;;;;26.83;31.74;96589.91;5082930;28;20106;-32
2022/05/04 09:15:00;;;;;;;10.65;2.90;;;;;;;26.83;31.69;96582.88;5097203;27;20073;-30
2022/05/04 09:17:25;;;;;;;7.50;2.58;;;;;;;26.86;31.77;96585.31;5095280;27;20027;-30
2022/05/04 09:22:40;;;;;;;6.28;2.55;;;;;;;26.88;31.81;96578.19;5094278;27;20066;-30
2022/05/04 09:25:16;;;;;;;10.45;2.50;;;;;;;26.90;31.78;96590.38;5099423;27;20039;-30
2022/05/04 09:27:42;;;;;;;7.53;3.00;;;;;;;26.90;31.89;96583.34;5101365;27;20046;-29
2022/05/04 09:30:07;;;;;;;7.82;2.47;;;;;;;26.92;31.82;96580.63;5102455;27;20035;-30
2022/05/04 09:32:33;;;;;;;7.95;2.90;;;;;;;26.94;31.70;96581.38;5103125;27;20031;-29
2022/05/04 09:35:01;;;;;;;7.22;2.63;;;;;;;26.94;31.76;96581.38;5087061;28;20085;-31
2022/05/04 09:45:39;;;;;;;8.70;2.83;;;;;;;26.97;31.90;96589.94;5098911;27;20058;-31
2022/05/04 09:48:05;;;;;;;7.60;2.55;;;;;;;26.98;31.83;96585.53;5101556;27;20795;-29
2022/05/04 09:50:38;;;;;;;7.95;2.80;;;;;;;26.98;31.93;96586.41;5080241;27;20023;-30
2022/05/04 09:53:04;;;;;;;7.57;2.58;;;;;;;27.00;31.87;96588.91;5105293;28;20086;-31
2022/05/04 09:55:29;;;;;;;10.35;2.60;;;;;;;27.01;31.88;96585.34;5103824;28;20493;-30
2022/05/04 09:57:55;;;;;;;4.70;2.30;;;;;;;27.02;31.87;96587.03;5105984;28;20035;-29
2022/05/04 10:00:21;;;;;;;6.40;2.38;;;;;;;27.04;31.81;96585.16;5098955;27;20023;-30
2022/05/04 10:02:51;;;;;;;4.57;2.50;;;;;;;27.04;31.96;96574.63;5096681;27;20030;-31
2022/05/04 10:05:17;;;;;;;6.55;2.75;;;;;;;27.05;31.96;96581.59;5090278;27;20145;-31
2022/05/04 10:07:44;;;;;;;6.90;2.83;;;;;;;27.08;31.87;96583.19;5098792;27;20035;-32
2022/05/04 10:10:11;;;;;;;6.25;2.30;;;;;;;27.09;31.98;96580.47;5097395;27;20031;-30
2022/05/04 10:12:41;;;;;;;8.52;2.50;;;;;;;27.12;31.92;96579.44;5099568;27;20028;-29
2022/05/04 10:15:11;;;;;;;5.90;2.70;;;;;;;27.13;31.89;96587.25;5096225;27;20062;-30
2022/05/04 10:18:06;;;;;;;4.82;2.53;;;;;;;27.15;31.96;96587.13;5097351;27;20031;-29
2022/05/04 10:20:45;;;;;;;5.00;2.38;;;;;;;27.17;31.95;96584.41;5098329;27;20032;-31
2022/05/04 10:23:24;;;;;;;7.25;2.50;;;;;;;27.18;31.98;96583.44;5081107;27;20062;-31
2022/05/04 10:25:53;;;;;;;6.10;2.63;;;;;;;27.19;31.90;96579.91;5081717;27;20030;-30
2022/05/04 10:28:18;;;;;;;4.68;2.60;;;;;;;27.19;31.97;96580.72;5097092;27;20036;-30
2022/05/04 10:30:56;;;;;;;4.50;2.35;;;;;;;27.21;31.85;96576.22;5095560;27;20055;-30
2022/05/04 10:33:31;;;;;;;5.82;2.30;;;;;;;27.21;32.01;96570.97;5096984;27;20035;-29
2022/05/04 10:35:56;;;;;;;6.28;2.30;;;;;;;27.23;31.90;96573.50;5097337;27;20047;-29
2022/05/04 10:38:28;;;;;;;5.93;2.25;;;;;;;27.23;32.08;96568.25;5097310;27;20905;-30
2022/05/04 10:40:57;;;;;;;5.78;2.42;;;;;;;27.25;32.05;96567.22;5097352;27;20051;-33
2022/05/04 10:43:34;;;;;;;7.35;2.47;;;;;;;27.26;32.16;96565.41;5093288;27;20045;-29
2022/05/04 10:46:04;;;;;;;6.80;2.55;;;;;;;27.28;32.02;96566.16;5091964;27;20689;-29
2022/05/04 10:48:29;;;;;;;6.68;2.20;;;;;;;27.29;32.01;96565.22;5092979;27;20019;-31
2022/05/04 10:51:02;;;;;;;4.60;2.20;;;;;;;27.30;32.12;96566.91;5090968;27;20027;-29
2022/05/04 10:53:28;;;;;;;4.82;1.85;;;;;;;27.30;31.94;96559.00;5090369;27;20054;-30
2022/05/04 10:56:07;;;;;;;3.55;1.98;;;;;;;27.30;31.91;96561.66;5098496;27;20046;-30
2022/05/04 10:58:38;;;;;;;8.98;2.40;;;;;;;27.32;32.01;96557.16;5091933;27;20734;-30
2022/05/04 11:01:12;;;;;;;4.00;2.00;;;;;;;27.32;31.96;96551.88;5091548;27;20039;-35
2022/05/04 11:03:48;;;;;;;4.00;1.85;;;;;;;27.31;31.90;96552.81;5093275;27;20032;-29
2022/05/04 11:06:36;;;;;;;4.22;2.10;;;;;;;27.31;32.13;96544.91;5093887;27;20019;-30
2022/05/04 11:09:07;;;;;;;6.25;2.42;;;;;;;27.30;32.35;96543.22;5090545;27;20749;-29
2022/05/04 11:11:33;;;;;;;4.33;2.07;;;;;;;27.33;32.22;96550.94;5089801;27;20224;-31
2022/05/04 11:13:58;;;;;;;4.78;2.50;;;;;;;27.33;32.41;96543.03;5094261;27;20023;-29
2022/05/04 11:16:24;;;;;;;6.22;2.10;;;;;;;27.35;32.36;96540.31;5092404;27;20110;-30
2022/05/04 11:18:50;;;;;;;7.95;2.58;;;;;;;27.35;32.26;96532.41;5100573;27;20104;-28
2022/05/04 11:21:16;;;;;;;6.20;2.17;;;;;;;27.35;32.44;96535.88;5094916;27;20027;-30
2022/05/04 11:23:49;;;;;;;6.55;3.35;;;;;;;27.34;32.30;96538.63;5095442;27;20031;-31
2022/05/04 11:26:22;;;;;;;7.80;2.75;;;;;;;27.34;32.22;96534.19;5102608;27;20057;-31
2022/05/04 11:28:48;;;;;;;5.40;2.53;;;;;;;27.35;32.22;96537.69;5090067;27;20038;-28
2022/05/04 11:31:13;;;;;;;5.20;2.08;;;;;;;27.35;32.07;96533.25;5086667;27;21194;-31
2022/05/04 11:33:43;;;;;;;4.88;2.60;;;;;;;27.35;32.18;96527.16;5077026;27;20516;-30
2022/05/04 11:36:09;;;;;;;4.47;2.08;;;;;;;27.35;32.20;96529.78;5097523;27;20150;-28
2022/05/04 11:38:34;;;;;;;11.77;2.70;;;;;;;27.35;32.12;96520.09;5096245;27;20056;-29
2022/05/04 11:41:00;;;;;;;6.95;2.08;;;;;;;27.34;32.16;96520.22;5096201;27;20039;-30
2022/05/04 11:43:25;;;;;;;4.85;2.22;;;;;;;27.34;32.35;96517.59;5060395;27;20023;-30
2022/05/04 11:45:51;;;;;;;5.90;2.45;;;;;;;27.35;32.46;96519.25;5097166;27;20568;-31
2022/05/04 11:48:18;;;;;;;11.68;2.85;;;;;;;27.34;32.10;96518.41;5095997;27;20031;-29